sensor_id;sensor_type;location;lat;lon;timestamp;temperature;humidity
23729;DHT22;12045;60.214;24.724;2023-03-31T01:04:12;-2.70;99.90
23729;DHT22;12045;60.214;24.724;2023-03-31T01:06:59;-2.90;99.90
23729;DHT22;12045;60.214;24.724;2023-03-31T01:09:29;-3.00;99.90
23729;DHT22;12045;60.214;24.724;2023-03-31T01:12:06;-0.30;99.90
23729;DHT22;12045;60.214;24.724;2023-03-31T01:14:35;-2.50;99.90
23729;DHT22;12045;60.214;24.724;2023-03-31T01:17:03;-0.50;99.90
23729;DHT22;12045;60.214;24.724;2023-03-31T01:22:33;-2.50;99.90
23729;DHT22;12045;60.214;24.724;2023-03-31T01:28:06;-2.50;99.90
23729;DHT22;12045;60.214;24.724;2023-03-31T01:31:07;-2.70;99.90
23729;DHT22;12045;60.214;24.724;2023-03-31T01:48:26;-2.90;99.90
23729;DHT22;12045;60.214;24.724;2023-03-31T01:51:14;-3.00;99.90
23729;DHT22;12045;60.214;24.724;2023-03-31T01:54:03;-2.80;99.90
23729;DHT22;12045;60.214;24.724;2023-03-31T01:56:34;-2.90;99.90
23729;DHT22;12045;60.214;24.724;2023-03-31T01:59:16;-3.30;99.90
23729;DHT22;12045;60.214;24.724;2023-03-31T02:01:50;-3.10;99.90
23729;DHT22;12045;60.214;24.724;2023-03-31T02:04:31;-3.30;99.90
23729;DHT22;12045;60.214;24.724;2023-03-31T02:07:05;-3.00;99.90
23729;DHT22;12045;60.214;24.724;2023-03-31T02:09:38;-3.60;99.90
23729;DHT22;12045;60.214;24.724;2023-03-31T02:12:09;-3.30;99.90
23729;DHT22;12045;60.214;24.724;2023-03-31T02:14:44;-3.50;99.90
23729;DHT22;12045;60.214;24.724;2023-03-31T02:17:16;-0.30;99.90
23729;DHT22;12045;60.214;24.724;2023-03-31T02:19:48;-3.40;99.90
23729;DHT22;12045;60.214;24.724;2023-03-31T02:22:17;-3.40;99.90
23729;DHT22;12045;60.214;24.724;2023-03-31T02:24:48;-0.60;99.90
23729;DHT22;12045;60.214;24.724;2023-03-31T02:29:49;-0.20;99.90
23729;DHT22;12045;60.214;24.724;2023-03-31T02:34:54;-3.00;99.90
23729;DHT22;12045;60.214;24.724;2023-03-31T02:37:22;-3.50;99.90
23729;DHT22;12045;60.214;24.724;2023-03-31T02:39:52;-3.60;99.90
23729;DHT22;12045;60.214;24.724;2023-03-31T02:42:21;-3.20;99.90
23729;DHT22;12045;60.214;24.724;2023-03-31T02:44:49;-1.10;99.90
23729;DHT22;12045;60.214;24.724;2023-03-31T02:47:18;-0.20;99.90
23729;DHT22;12045;60.214;24.724;2023-03-31T02:49:53;-3.40;99.90
23729;DHT22;12045;60.214;24.724;2023-03-31T02:52:44;-3.20;99.90
23729;DHT22;12045;60.214;24.724;2023-03-31T02:58:31;-3.10;99.90
23729;DHT22;12045;60.214;24.724;2023-03-31T03:06:59;-3.10;99.90
23729;DHT22;12045;60.214;24.724;2023-03-31T03:09:34;-2.80;99.90
23729;DHT22;12045;60.214;24.724;2023-03-31T03:17:33;-3.00;99.90
23729;DHT22;12045;60.214;24.724;2023-03-31T03:20:04;-3.40;99.90
23729;DHT22;12045;60.214;24.724;2023-03-31T03:22:36;-2.90;99.90
23729;DHT22;12045;60.214;24.724;2023-03-31T03:25:09;-1.60;99.90
23729;DHT22;12045;60.214;24.724;2023-03-31T03:27:38;-2.70;99.90
23729;DHT22;12045;60.214;24.724;2023-03-31T03:30:08;-3.00;99.90
23729;DHT22;12045;60.214;24.724;2023-03-31T03:32:35;-2.80;99.90
23729;DHT22;12045;60.214;24.724;2023-03-31T03:35:04;-3.00;99.90
23729;DHT22;12045;60.214;24.724;2023-03-31T03:37:32;-2.90;99.90
23729;DHT22;12045;60.214;24.724;2023-03-31T03:40:01;-3.00;99.90
23729;DHT22;12045;60.214;24.724;2023-03-31T03:42:29;-0.40;99.90
23729;DHT22;12045;60.214;24.724;2023-03-31T03:44:56;-3.00;99.90
23729;DHT22;12045;60.214;24.724;2023-03-31T03:47:25;0.00;99.90
23729;DHT22;12045;60.214;24.724;2023-03-31T03:49:52;0.00;99.90
23729;DHT22;12045;60.214;24.724;2023-03-31T03:52:20;-0.40;99.90
23729;DHT22;12045;60.214;24.724;2023-03-31T03:54:47;-3.30;99.90
23729;DHT22;12045;60.214;24.724;2023-03-31T03:57:16;-3.30;99.90
23729;DHT22;12045;60.214;24.724;2023-03-31T03:59:43;0.70;99.90
23729;DHT22;12045;60.214;24.724;2023-03-31T04:02:11;0.10;99.90
23729;DHT22;12045;60.214;24.724;2023-03-31T04:04:39;0.70;99.90
23729;DHT22;12045;60.214;24.724;2023-03-31T04:07:07;0.40;99.90
23729;DHT22;12045;60.214;24.724;2023-03-31T04:09:34;-1.20;99.90
23729;DHT22;12045;60.214;24.724;2023-03-31T04:12:01;-0.50;99.90
23729;DHT22;12045;60.214;24.724;2023-03-31T04:14:29;-2.50;99.90
23729;DHT22;12045;60.214;24.724;2023-03-31T04:16:57;-3.20;99.90
23729;DHT22;12045;60.214;24.724;2023-03-31T04:19:24;-3.30;99.90
23729;DHT22;12045;60.214;24.724;2023-03-31T04:21:53;-3.30;99.90
23729;DHT22;12045;60.214;24.724;2023-03-31T04:24:27;-3.20;99.90
23729;DHT22;12045;60.214;24.724;2023-03-31T04:27:00;-2.80;99.90
23729;DHT22;12045;60.214;24.724;2023-03-31T04:29:29;0.20;99.90
23729;DHT22;12045;60.214;24.724;2023-03-31T04:32:00;-0.20;99.90
23729;DHT22;12045;60.214;24.724;2023-03-31T04:34:27;0.30;99.90
23729;DHT22;12045;60.214;24.724;2023-03-31T04:37:02;-1.70;99.90
23729;DHT22;12045;60.214;24.724;2023-03-31T04:39:30;-1.10;99.90
23729;DHT22;12045;60.214;24.724;2023-03-31T04:41:58;-3.10;99.90
23729;DHT22;12045;60.214;24.724;2023-03-31T04:44:26;-3.00;99.90
23729;DHT22;12045;60.214;24.724;2023-03-31T04:46:54;0.50;99.90
23729;DHT22;12045;60.214;24.724;2023-03-31T04:49:22;-1.50;99.90
23729;DHT22;12045;60.214;24.724;2023-03-31T04:51:50;0.80;99.90
23729;DHT22;12045;60.214;24.724;2023-03-31T04:54:18;-3.50;99.90
23729;DHT22;12045;60.214;24.724;2023-03-31T04:56:46;-2.50;99.90
23729;DHT22;12045;60.214;24.724;2023-03-31T04:59:13;0.60;99.90
23729;DHT22;12045;60.214;24.724;2023-03-31T05:01:41;-1.40;99.90
23729;DHT22;12045;60.214;24.724;2023-03-31T05:04:13;-3.20;99.90
23729;DHT22;12045;60.214;24.724;2023-03-31T05:06:40;-0.80;99.90
23729;DHT22;12045;60.214;24.724;2023-03-31T05:09:09;-3.00;99.90
23729;DHT22;12045;60.214;24.724;2023-03-31T05:11:37;-2.40;99.90
23729;DHT22;12045;60.214;24.724;2023-03-31T05:14:08;-3.00;99.90
23729;DHT22;12045;60.214;24.724;2023-03-31T05:16:38;-2.60;99.90
23729;DHT22;12045;60.214;24.724;2023-03-31T05:19:12;-2.50;99.90
23729;DHT22;12045;60.214;24.724;2023-03-31T05:21:42;-0.30;99.90
23729;DHT22;12045;60.214;24.724;2023-03-31T05:24:09;0.90;99.90
23729;DHT22;12045;60.214;24.724;2023-03-31T05:26:37;-1.70;99.90
23729;DHT22;12045;60.214;24.724;2023-03-31T05:29:10;-0.90;99.90
23729;DHT22;12045;60.214;24.724;2023-03-31T05:31:41;-2.60;99.90
23729;DHT22;12045;60.214;24.724;2023-03-31T05:34:08;-2.10;99.90
23729;DHT22;12045;60.214;24.724;2023-03-31T05:36:37;-0.50;99.90
23729;DHT22;12045;60.214;24.724;2023-03-31T05:39:05;-0.70;99.90
23729;DHT22;12045;60.214;24.724;2023-03-31T05:41:48;-0.60;99.90
23729;DHT22;12045;60.214;24.724;2023-03-31T05:44:16;0.90;99.90
23729;DHT22;12045;60.214;24.724;2023-03-31T05:46:46;-2.50;99.90
23729;DHT22;12045;60.214;24.724;2023-03-31T05:49:14;-2.00;99.90
23729;DHT22;12045;60.214;24.724;2023-03-31T05:51:46;-2.40;99.90
23729;DHT22;12045;60.214;24.724;2023-03-31T05:54:27;-2.10;99.90
23729;DHT22;12045;60.214;24.724;2023-03-31T05:56:55;-2.00;99.90
23729;DHT22;12045;60.214;24.724;2023-03-31T05:59:25;-1.40;99.90
23729;DHT22;12045;60.214;24.724;2023-03-31T06:01:57;-1.60;99.90
23729;DHT22;12045;60.214;24.724;2023-03-31T06:04:30;1.70;99.90
23729;DHT22;12045;60.214;24.724;2023-03-31T06:06:59;0.90;99.90
23729;DHT22;12045;60.214;24.724;2023-03-31T06:09:28;0.30;99.90
23729;DHT22;12045;60.214;24.724;2023-03-31T06:11:58;-1.00;99.90
23729;DHT22;12045;60.214;24.724;2023-03-31T06:14:27;0.70;99.90
23729;DHT22;12045;60.214;24.724;2023-03-31T06:17:34;0.20;99.90
23729;DHT22;12045;60.214;24.724;2023-03-31T06:20:20;0.50;99.90
23729;DHT22;12045;60.214;24.724;2023-03-31T06:23:03;0.90;99.90
23729;DHT22;12045;60.214;24.724;2023-03-31T06:25:32;1.00;99.90
23729;DHT22;12045;60.214;24.724;2023-03-31T06:28:15;1.40;99.90
23729;DHT22;12045;60.214;24.724;2023-03-31T06:30:46;-0.70;99.90
23729;DHT22;12045;60.214;24.724;2023-03-31T06:33:17;0.10;99.90
23729;DHT22;12045;60.214;24.724;2023-03-31T06:35:47;-0.60;99.90
23729;DHT22;12045;60.214;24.724;2023-03-31T06:38:18;2.40;99.90
23729;DHT22;12045;60.214;24.724;2023-03-31T06:40:47;-0.50;99.90
23729;DHT22;12045;60.214;24.724;2023-03-31T06:43:16;2.60;99.90
23729;DHT22;12045;60.214;24.724;2023-03-31T06:45:46;0.40;99.90
23729;DHT22;12045;60.214;24.724;2023-03-31T06:48:43;1.90;99.90
23729;DHT22;12045;60.214;24.724;2023-03-31T06:51:20;0.50;99.90
23729;DHT22;12045;60.214;24.724;2023-03-31T06:53:48;0.70;99.90
23729;DHT22;12045;60.214;24.724;2023-03-31T06:56:20;1.40;99.90
23729;DHT22;12045;60.214;24.724;2023-03-31T06:59:05;-0.40;99.90
23729;DHT22;12045;60.214;24.724;2023-03-31T07:01:34;-0.30;99.90
23729;DHT22;12045;60.214;24.724;2023-03-31T07:04:26;0.50;99.90
23729;DHT22;12045;60.214;24.724;2023-03-31T07:07:14;-0.50;99.90
23729;DHT22;12045;60.214;24.724;2023-03-31T07:09:56;-0.20;99.90
23729;DHT22;12045;60.214;24.724;2023-03-31T07:12:34;0.70;99.90
23729;DHT22;12045;60.214;24.724;2023-03-31T07:15:15;2.30;99.90
23729;DHT22;12045;60.214;24.724;2023-03-31T07:17:46;-0.10;99.90
23729;DHT22;12045;60.214;24.724;2023-03-31T07:20:23;-0.10;99.90
23729;DHT22;12045;60.214;24.724;2023-03-31T07:23:06;1.30;99.90
23729;DHT22;12045;60.214;24.724;2023-03-31T07:25:51;0.00;99.90
23729;DHT22;12045;60.214;24.724;2023-03-31T07:28:20;2.00;99.90
23729;DHT22;12045;60.214;24.724;2023-03-31T07:30:50;-0.10;99.90
23729;DHT22;12045;60.214;24.724;2023-03-31T07:33:24;0.20;99.90
23729;DHT22;12045;60.214;24.724;2023-03-31T07:36:06;0.10;99.90
23729;DHT22;12045;60.214;24.724;2023-03-31T07:38:52;0.00;99.90
23729;DHT22;12045;60.214;24.724;2023-03-31T07:41:30;0.50;99.90
23729;DHT22;12045;60.214;24.724;2023-03-31T07:44:34;2.60;99.90
23729;DHT22;12045;60.214;24.724;2023-03-31T07:47:16;0.60;99.90
23729;DHT22;12045;60.214;24.724;2023-03-31T07:50:06;2.60;99.90
23729;DHT22;12045;60.214;24.724;2023-03-31T07:52:57;1.00;99.90
23729;DHT22;12045;60.214;24.724;2023-03-31T07:56:03;1.20;99.90
23729;DHT22;12045;60.214;24.724;2023-03-31T07:58:37;0.70;99.90
23729;DHT22;12045;60.214;24.724;2023-03-31T08:01:25;2.00;99.90
23729;DHT22;12045;60.214;24.724;2023-03-31T08:03:56;3.50;99.90
23729;DHT22;12045;60.214;24.724;2023-03-31T08:06:46;1.30;99.90
23729;DHT22;12045;60.214;24.724;2023-03-31T08:09:26;1.00;99.90
23729;DHT22;12045;60.214;24.724;2023-03-31T08:12:05;2.10;99.90
23729;DHT22;12045;60.214;24.724;2023-03-31T08:14:38;1.00;99.90
23729;DHT22;12045;60.214;24.724;2023-03-31T08:17:21;3.30;99.90
23729;DHT22;12045;60.214;24.724;2023-03-31T08:20:25;1.20;99.90
23729;DHT22;12045;60.214;24.724;2023-03-31T08:23:10;1.20;99.90
23729;DHT22;12045;60.214;24.724;2023-03-31T08:25:52;2.60;99.90
23729;DHT22;12045;60.214;24.724;2023-03-31T08:28:22;2.30;99.90
23729;DHT22;12045;60.214;24.724;2023-03-31T08:31:02;1.10;99.90
23729;DHT22;12045;60.214;24.724;2023-03-31T08:33:39;1.20;99.90
23729;DHT22;12045;60.214;24.724;2023-03-31T08:36:17;1.50;99.90
23729;DHT22;12045;60.214;24.724;2023-03-31T08:38:52;1.00;99.90
23729;DHT22;12045;60.214;24.724;2023-03-31T08:41:52;1.20;99.90
23729;DHT22;12045;60.214;24.724;2023-03-31T08:47:39;1.30;99.90
23729;DHT22;12045;60.214;24.724;2023-03-31T08:50:27;1.10;99.90
23729;DHT22;12045;60.214;24.724;2023-03-31T08:53:35;1.00;99.90
23729;DHT22;12045;60.214;24.724;2023-03-31T08:56:21;1.60;99.90
23729;DHT22;12045;60.214;24.724;2023-03-31T08:58:55;3.30;99.90
23729;DHT22;12045;60.214;24.724;2023-03-31T09:01:43;2.30;99.90
23729;DHT22;12045;60.214;24.724;2023-03-31T09:10:33;1.80;99.90
23729;DHT22;12045;60.214;24.724;2023-03-31T09:16:44;2.00;99.90
23729;DHT22;12045;60.214;24.724;2023-03-31T09:22:37;2.20;99.90
23729;DHT22;12045;60.214;24.724;2023-03-31T09:25:37;3.10;99.90
23729;DHT22;12045;60.214;24.724;2023-03-31T09:28:30;2.40;99.90
23729;DHT22;12045;60.214;24.724;2023-03-31T09:31:28;2.40;99.90
23729;DHT22;12045;60.214;24.724;2023-03-31T09:37:01;2.60;99.90
23729;DHT22;12045;60.214;24.724;2023-03-31T09:39:36;2.50;99.90
23729;DHT22;12045;60.214;24.724;2023-03-31T09:42:05;2.50;99.90
23729;DHT22;12045;60.214;24.724;2023-03-31T09:44:39;2.60;99.90
23729;DHT22;12045;60.214;24.724;2023-03-31T10:01:00;3.40;99.90
23729;DHT22;12045;60.214;24.724;2023-03-31T10:03:51;2.50;99.90
23729;DHT22;12045;60.214;24.724;2023-03-31T10:06:39;4.00;99.90
23729;DHT22;12045;60.214;24.724;2023-03-31T10:09:30;4.60;99.90
23729;DHT22;12045;60.214;24.724;2023-03-31T10:15:25;3.40;99.90
23729;DHT22;12045;60.214;24.724;2023-03-31T10:17:59;3.80;99.90
23729;DHT22;12045;60.214;24.724;2023-03-31T10:20:41;3.70;99.90
23729;DHT22;12045;60.214;24.724;2023-03-31T10:23:33;3.00;99.90
23729;DHT22;12045;60.214;24.724;2023-03-31T10:26:27;2.50;99.90
23729;DHT22;12045;60.214;24.724;2023-03-31T10:28:57;3.60;99.90
23729;DHT22;12045;60.214;24.724;2023-03-31T10:31:35;3.60;99.90
23729;DHT22;12045;60.214;24.724;2023-03-31T10:34:14;2.20;99.90
23729;DHT22;12045;60.214;24.724;2023-03-31T10:36:50;2.00;99.90
23729;DHT22;12045;60.214;24.724;2023-03-31T10:39:18;3.20;99.90
23729;DHT22;12045;60.214;24.724;2023-03-31T10:41:50;3.00;99.90
23729;DHT22;12045;60.214;24.724;2023-03-31T10:50:36;4.50;99.70
23729;DHT22;12045;60.214;24.724;2023-03-31T10:53:12;4.30;97.20
23729;DHT22;12045;60.214;24.724;2023-03-31T11:04:37;6.00;90.60
23729;DHT22;12045;60.214;24.724;2023-03-31T11:10:07;5.70;91.30
23729;DHT22;12045;60.214;24.724;2023-03-31T11:18:35;6.00;87.00
23729;DHT22;12045;60.214;24.724;2023-03-31T11:35:44;5.20;88.80
23729;DHT22;12045;60.214;24.724;2023-03-31T11:46:22;3.80;90.20
23729;DHT22;12045;60.214;24.724;2023-03-31T11:49:01;4.00;90.50
23729;DHT22;12045;60.214;24.724;2023-03-31T11:56:56;4.00;90.60
23729;DHT22;12045;60.214;24.724;2023-03-31T11:59:27;4.40;89.20
23729;DHT22;12045;60.214;24.724;2023-03-31T12:04:58;4.20;88.90
23729;DHT22;12045;60.214;24.724;2023-03-31T12:07:33;5.30;90.60
23729;DHT22;12045;60.214;24.724;2023-03-31T12:10:41;5.10;90.30
23729;DHT22;12045;60.214;24.724;2023-03-31T12:16:00;4.90;89.40
23729;DHT22;12045;60.214;24.724;2023-03-31T12:21:34;4.90;87.40
23729;DHT22;12045;60.214;24.724;2023-03-31T12:24:03;4.90;87.90
23729;DHT22;12045;60.214;24.724;2023-03-31T12:29:29;4.50;88.50
23729;DHT22;12045;60.214;24.724;2023-03-31T12:32:04;4.10;89.10
23729;DHT22;12045;60.214;24.724;2023-03-31T12:34:35;4.10;90.40
23729;DHT22;12045;60.214;24.724;2023-03-31T12:40:01;3.80;90.20
23729;DHT22;12045;60.214;24.724;2023-03-31T12:43:04;3.20;90.90
23729;DHT22;12045;60.214;24.724;2023-03-31T12:46:25;2.90;91.10
23729;DHT22;12045;60.214;24.724;2023-03-31T12:51:28;3.10;91.30
23729;DHT22;12045;60.214;24.724;2023-03-31T12:57:12;2.60;91.20
23729;DHT22;12045;60.214;24.724;2023-03-31T12:59:43;2.70;90.40
23729;DHT22;12045;60.214;24.724;2023-03-31T13:04:43;3.00;90.40
23729;DHT22;12045;60.214;24.724;2023-03-31T13:13:13;2.80;90.60
23729;DHT22;12045;60.214;24.724;2023-03-31T13:15:56;2.80;90.40
23729;DHT22;12045;60.214;24.724;2023-03-31T13:18:24;2.90;90.70
23729;DHT22;12045;60.214;24.724;2023-03-31T13:20:59;2.30;90.20
23729;DHT22;12045;60.214;24.724;2023-03-31T13:23:32;3.00;90.60
23729;DHT22;12045;60.214;24.724;2023-03-31T13:26:00;2.80;90.40
23729;DHT22;12045;60.214;24.724;2023-03-31T13:28:39;2.90;90.80
23729;DHT22;12045;60.214;24.724;2023-03-31T13:31:09;4.40;91.40
23729;DHT22;12045;60.214;24.724;2023-03-31T13:33:45;3.30;90.90
23729;DHT22;12045;60.214;24.724;2023-03-31T13:53:00;2.70;89.60
23729;DHT22;12045;60.214;24.724;2023-03-31T14:07:09;2.90;90.00
23729;DHT22;12045;60.214;24.724;2023-03-31T14:09:41;2.90;89.50
23729;DHT22;12045;60.214;24.724;2023-03-31T14:12:36;3.50;89.80
23729;DHT22;12045;60.214;24.724;2023-03-31T14:15:05;2.90;88.70
23729;DHT22;12045;60.214;24.724;2023-03-31T14:17:36;3.40;88.50
23729;DHT22;12045;60.214;24.724;2023-03-31T14:26:08;3.80;85.90
23729;DHT22;12045;60.214;24.724;2023-03-31T14:31:46;2.90;84.50
23729;DHT22;12045;60.214;24.724;2023-03-31T14:37:25;2.90;84.90
23729;DHT22;12045;60.214;24.724;2023-03-31T14:39:55;3.50;85.20
23729;DHT22;12045;60.214;24.724;2023-03-31T14:42:26;3.60;86.80
23729;DHT22;12045;60.214;24.724;2023-03-31T14:44:57;2.90;85.00
23729;DHT22;12045;60.214;24.724;2023-03-31T14:47:28;3.10;83.50
23729;DHT22;12045;60.214;24.724;2023-03-31T14:50:12;3.40;83.10
23729;DHT22;12045;60.214;24.724;2023-03-31T14:52:45;2.90;84.70
23729;DHT22;12045;60.214;24.724;2023-03-31T14:55:19;3.80;85.80
23729;DHT22;12045;60.214;24.724;2023-03-31T14:57:53;2.60;84.10
23729;DHT22;12045;60.214;24.724;2023-03-31T15:00:27;3.10;84.50
23729;DHT22;12045;60.214;24.724;2023-03-31T15:02:57;3.70;86.30
23729;DHT22;12045;60.214;24.724;2023-03-31T15:05:29;4.10;85.00
23729;DHT22;12045;60.214;24.724;2023-03-31T15:08:02;2.90;83.70
23729;DHT22;12045;60.214;24.724;2023-03-31T15:10:36;3.10;83.10
23729;DHT22;12045;60.214;24.724;2023-03-31T15:13:15;2.70;82.90
23729;DHT22;12045;60.214;24.724;2023-03-31T15:15:43;3.10;83.90
23729;DHT22;12045;60.214;24.724;2023-03-31T15:18:14;4.80;84.80
23729;DHT22;12045;60.214;24.724;2023-03-31T15:20:44;3.20;82.00
23729;DHT22;12045;60.214;24.724;2023-03-31T15:23:22;4.00;82.40
23729;DHT22;12045;60.214;24.724;2023-03-31T15:26:07;3.00;82.00
23729;DHT22;12045;60.214;24.724;2023-03-31T15:28:51;3.00;82.00
23729;DHT22;12045;60.214;24.724;2023-03-31T15:31:21;3.20;81.40
23729;DHT22;12045;60.214;24.724;2023-03-31T15:33:49;3.30;81.50
23729;DHT22;12045;60.214;24.724;2023-03-31T15:36:17;4.40;81.80
23729;DHT22;12045;60.214;24.724;2023-03-31T15:38:55;3.10;82.80
23729;DHT22;12045;60.214;24.724;2023-03-31T15:41:28;3.90;82.90
23729;DHT22;12045;60.214;24.724;2023-03-31T15:44:34;2.70;82.70
23729;DHT22;12045;60.214;24.724;2023-03-31T15:47:11;2.50;82.40
23729;DHT22;12045;60.214;24.724;2023-03-31T15:50:09;3.80;83.30
23729;DHT22;12045;60.214;24.724;2023-03-31T15:52:35;3.10;83.10
23729;DHT22;12045;60.214;24.724;2023-03-31T15:55:31;2.40;82.70
23729;DHT22;12045;60.214;24.724;2023-03-31T15:58:00;2.60;83.80
23729;DHT22;12045;60.214;24.724;2023-03-31T16:03:35;2.20;82.90
23729;DHT22;12045;60.214;24.724;2023-03-31T16:06:14;2.90;82.70
23729;DHT22;12045;60.214;24.724;2023-03-31T16:08:51;2.20;81.60
23729;DHT22;12045;60.214;24.724;2023-03-31T16:11:26;1.90;81.40
23729;DHT22;12045;60.214;24.724;2023-03-31T16:14:01;2.30;80.10
23729;DHT22;12045;60.214;24.724;2023-03-31T16:16:36;3.10;83.00
23729;DHT22;12045;60.214;24.724;2023-03-31T16:19:07;3.10;80.70
23729;DHT22;12045;60.214;24.724;2023-03-31T16:21:43;4.30;80.60
23729;DHT22;12045;60.214;24.724;2023-03-31T16:24:10;3.70;80.40
23729;DHT22;12045;60.214;24.724;2023-03-31T16:26:38;4.20;79.20
23729;DHT22;12045;60.214;24.724;2023-03-31T16:29:05;4.00;80.00
23729;DHT22;12045;60.214;24.724;2023-03-31T16:31:36;4.60;78.90
23729;DHT22;12045;60.214;24.724;2023-03-31T16:34:07;2.90;77.70
23729;DHT22;12045;60.214;24.724;2023-03-31T16:36:36;4.10;79.10
23729;DHT22;12045;60.214;24.724;2023-03-31T16:39:05;3.90;77.50
23729;DHT22;12045;60.214;24.724;2023-03-31T16:41:34;3.60;78.60
23729;DHT22;12045;60.214;24.724;2023-03-31T16:44:03;3.50;77.90
23729;DHT22;12045;60.214;24.724;2023-03-31T16:46:32;2.10;77.10
23729;DHT22;12045;60.214;24.724;2023-03-31T16:49:00;2.00;77.30
23729;DHT22;12045;60.214;24.724;2023-03-31T16:51:27;1.90;77.10
23729;DHT22;12045;60.214;24.724;2023-03-31T16:53:55;2.70;77.10
23729;DHT22;12045;60.214;24.724;2023-03-31T16:56:25;2.30;78.10
23729;DHT22;12045;60.214;24.724;2023-03-31T16:58:53;1.80;77.80
23729;DHT22;12045;60.214;24.724;2023-03-31T17:01:21;3.10;78.10
23729;DHT22;12045;60.214;24.724;2023-03-31T17:03:50;4.30;78.70
23729;DHT22;12045;60.214;24.724;2023-03-31T17:06:18;3.90;79.50
23729;DHT22;12045;60.214;24.724;2023-03-31T17:08:45;3.60;79.50
23729;DHT22;12045;60.214;24.724;2023-03-31T17:11:13;3.80;79.10
23729;DHT22;12045;60.214;24.724;2023-03-31T17:13:41;3.10;80.00
23729;DHT22;12045;60.214;24.724;2023-03-31T17:16:10;1.60;79.00
23729;DHT22;12045;60.214;24.724;2023-03-31T17:18:41;2.40;91.60
23729;DHT22;12045;60.214;24.724;2023-03-31T17:21:10;1.40;87.10
23729;DHT22;12045;60.214;24.724;2023-03-31T17:23:40;3.40;90.10
23729;DHT22;12045;60.214;24.724;2023-03-31T17:28:36;1.10;99.90
23729;DHT22;12045;60.214;24.724;2023-03-31T17:31:12;1.30;96.40
23729;DHT22;12045;60.214;24.724;2023-03-31T17:33:40;2.40;97.40
23729;DHT22;12045;60.214;24.724;2023-03-31T17:36:08;0.90;95.40
23729;DHT22;12045;60.214;24.724;2023-03-31T17:38:36;2.10;90.00
23729;DHT22;12045;60.214;24.724;2023-03-31T17:41:08;1.70;99.90
23729;DHT22;12045;60.214;24.724;2023-03-31T17:43:36;3.20;96.30
23729;DHT22;12045;60.214;24.724;2023-03-31T17:46:06;3.40;96.30
23729;DHT22;12045;60.214;24.724;2023-03-31T17:48:37;2.90;95.70
23729;DHT22;12045;60.214;24.724;2023-03-31T17:51:08;3.50;96.90
23729;DHT22;12045;60.214;24.724;2023-03-31T17:53:36;2.20;97.00
23729;DHT22;12045;60.214;24.724;2023-03-31T17:56:03;2.70;89.50
23729;DHT22;12045;60.214;24.724;2023-03-31T17:58:31;0.90;89.20
23729;DHT22;12045;60.214;24.724;2023-03-31T18:03:27;-0.20;92.20
23729;DHT22;12045;60.214;24.724;2023-03-31T18:05:59;0.30;95.20
23729;DHT22;12045;60.214;24.724;2023-03-31T18:08:28;2.90;96.10
23729;DHT22;12045;60.214;24.724;2023-03-31T18:10:56;2.70;96.50
23729;DHT22;12045;60.214;24.724;2023-03-31T18:13:23;0.00;96.10
23729;DHT22;12045;60.214;24.724;2023-03-31T18:15:51;0.10;98.40
23729;DHT22;12045;60.214;24.724;2023-03-31T18:18:19;0.10;98.60
23729;DHT22;12045;60.214;24.724;2023-03-31T18:20:47;1.70;99.60
23729;DHT22;12045;60.214;24.724;2023-03-31T18:23:15;0.00;98.70
23729;DHT22;12045;60.214;24.724;2023-03-31T18:25:43;0.00;98.60
23729;DHT22;12045;60.214;24.724;2023-03-31T18:28:15;0.10;98.80
23729;DHT22;12045;60.214;24.724;2023-03-31T18:30:42;1.70;99.90
23729;DHT22;12045;60.214;24.724;2023-03-31T18:33:11;0.00;99.90
23729;DHT22;12045;60.214;24.724;2023-03-31T18:35:39;-0.10;99.60
23729;DHT22;12045;60.214;24.724;2023-03-31T18:38:06;-0.10;99.50
23729;DHT22;12045;60.214;24.724;2023-03-31T18:40:49;0.00;99.90
23729;DHT22;12045;60.214;24.724;2023-03-31T18:43:17;0.10;99.90
23729;DHT22;12045;60.214;24.724;2023-03-31T18:45:51;1.00;99.90
23729;DHT22;12045;60.214;24.724;2023-03-31T18:50:50;-0.40;96.50
23729;DHT22;12045;60.214;24.724;2023-03-31T18:53:21;-0.50;94.70
23729;DHT22;12045;60.214;24.724;2023-03-31T18:55:50;-0.80;95.00
23729;DHT22;12045;60.214;24.724;2023-03-31T19:00:47;-0.60;99.90
23729;DHT22;12045;60.214;24.724;2023-03-31T19:08:11;-0.80;99.90
23729;DHT22;12045;60.214;24.724;2023-03-31T19:10:38;-0.80;99.90
23729;DHT22;12045;60.214;24.724;2023-03-31T19:13:06;-0.80;99.90
23729;DHT22;12045;60.214;24.724;2023-03-31T19:15:34;-0.70;99.90
23729;DHT22;12045;60.214;24.724;2023-03-31T19:18:03;-1.30;99.90
23729;DHT22;12045;60.214;24.724;2023-03-31T19:20:31;-0.40;99.90
23729;DHT22;12045;60.214;24.724;2023-03-31T19:22:58;-1.00;99.90
23729;DHT22;12045;60.214;24.724;2023-03-31T19:25:26;-1.00;99.90
23729;DHT22;12045;60.214;24.724;2023-03-31T19:27:54;-0.90;99.90
23729;DHT22;12045;60.214;24.724;2023-03-31T19:30:22;-1.00;99.90
23729;DHT22;12045;60.214;24.724;2023-03-31T19:32:51;-1.20;99.90
23729;DHT22;12045;60.214;24.724;2023-03-31T19:35:20;-1.00;99.90
23729;DHT22;12045;60.214;24.724;2023-03-31T19:37:48;-1.00;99.90
23729;DHT22;12045;60.214;24.724;2023-03-31T19:40:17;-0.80;99.90
23729;DHT22;12045;60.214;24.724;2023-03-31T19:47:40;-0.70;99.90
23729;DHT22;12045;60.214;24.724;2023-03-31T19:52:36;-1.40;99.90
23729;DHT22;12045;60.214;24.724;2023-03-31T19:55:03;-1.70;99.90
23729;DHT22;12045;60.214;24.724;2023-03-31T20:00:00;-1.10;99.90
23729;DHT22;12045;60.214;24.724;2023-03-31T22:38:30;-2.70;99.90
23729;DHT22;12045;60.214;24.724;2023-03-31T22:40:58;-2.90;99.90
23729;DHT22;12045;60.214;24.724;2023-03-31T22:43:25;-2.80;99.90
23729;DHT22;12045;60.214;24.724;2023-03-31T22:45:53;-2.90;99.90
23729;DHT22;12045;60.214;24.724;2023-03-31T22:48:20;-3.00;99.90
23729;DHT22;12045;60.214;24.724;2023-03-31T22:50:48;-3.80;99.90
23729;DHT22;12045;60.214;24.724;2023-03-31T22:53:16;-3.30;99.90
23729;DHT22;12045;60.214;24.724;2023-03-31T22:55:44;-3.30;99.90
23729;DHT22;12045;60.214;24.724;2023-03-31T22:58:20;-3.30;99.90
23729;DHT22;12045;60.214;24.724;2023-03-31T23:00:56;-3.30;99.90
23729;DHT22;12045;60.214;24.724;2023-03-31T23:03:24;-3.30;99.90
23729;DHT22;12045;60.214;24.724;2023-03-31T23:05:52;-3.20;99.90
23729;DHT22;12045;60.214;24.724;2023-03-31T23:08:20;-3.20;99.90
23729;DHT22;12045;60.214;24.724;2023-03-31T23:10:57;-3.20;99.90
23729;DHT22;12045;60.214;24.724;2023-03-31T23:13:28;-3.40;99.90
23729;DHT22;12045;60.214;24.724;2023-03-31T23:16:01;-3.30;99.90
23729;DHT22;12045;60.214;24.724;2023-03-31T23:18:29;-3.20;99.90
23729;DHT22;12045;60.214;24.724;2023-03-31T23:20:56;-3.20;99.90
23729;DHT22;12045;60.214;24.724;2023-03-31T23:23:24;-3.20;99.90
23729;DHT22;12045;60.214;24.724;2023-03-31T23:25:51;-3.20;99.90
23729;DHT22;12045;60.214;24.724;2023-03-31T23:28:19;-3.40;99.90
23729;DHT22;12045;60.214;24.724;2023-03-31T23:30:53;-2.90;99.90